createdAt,value
2023-03-17T00:00:48.593Z,3.30
2023-03-17T00:03:23.564Z,3.30
2023-03-17T00:05:53.420Z,3.30
2023-03-17T00:08:28.989Z,3.30
2023-03-17T00:10:56.284Z,3.30
2023-03-17T00:13:24.029Z,3.20
2023-03-17T00:16:07.618Z,3.20
2023-03-17T00:18:35.548Z,3.20
2023-03-17T00:21:02.690Z,3.20
2023-03-17T00:23:30.038Z,3.20
2023-03-17T00:25:57.444Z,3.20
2023-03-17T00:28:27.404Z,3.10
2023-03-17T00:31:07.040Z,3.20
2023-03-17T00:33:37.216Z,3.10
2023-03-17T00:36:05.029Z,3.10
2023-03-17T00:38:32.351Z,3.10
2023-03-17T00:40:59.550Z,3.20
2023-03-17T00:43:29.325Z,3.20
2023-03-17T00:45:57.700Z,3.10
2023-03-17T00:48:25.042Z,3.10
2023-03-17T00:50:52.216Z,3.00
2023-03-17T00:53:23.867Z,3.10
2023-03-17T00:55:51.110Z,3.20
2023-03-17T00:58:27.454Z,3.00
2023-03-17T01:00:55.839Z,3.00
2023-03-17T01:03:24.827Z,3.00
2023-03-17T01:05:54.667Z,3.00
2023-03-17T01:08:23.731Z,2.90
2023-03-17T01:10:50.955Z,2.90
2023-03-17T01:13:19.857Z,2.90
2023-03-17T01:15:50.455Z,2.90
2023-03-17T01:18:21.743Z,2.90
2023-03-17T01:20:49.927Z,2.90
2023-03-17T01:23:17.893Z,2.90
2023-03-17T01:25:45.515Z,2.90
2023-03-17T01:28:16.986Z,2.80
2023-03-17T01:30:45.278Z,2.80
2023-03-17T01:33:14.739Z,2.80
2023-03-17T01:35:43.966Z,2.80
2023-03-17T01:38:11.977Z,2.80
2023-03-17T01:40:49.837Z,2.80
2023-03-17T01:43:25.505Z,2.80
2023-03-17T01:46:25.218Z,2.80
2023-03-17T01:49:05.671Z,2.80
2023-03-17T01:52:03.460Z,2.80
2023-03-17T01:54:30.580Z,2.70
2023-03-17T01:57:04.637Z,2.70
2023-03-17T01:59:37.897Z,2.70
2023-03-17T02:02:10.920Z,2.70
2023-03-17T02:04:40.237Z,2.70
2023-03-17T02:07:08.141Z,2.70
2023-03-17T02:09:38.001Z,2.70
2023-03-17T02:12:07.046Z,2.70
2023-03-17T02:14:34.268Z,2.60
2023-03-17T02:17:02.825Z,2.60
2023-03-17T02:19:30.928Z,2.50
2023-03-17T02:21:59.888Z,2.40
2023-03-17T02:24:37.844Z,2.40
2023-03-17T02:27:18.661Z,2.40
2023-03-17T02:29:46.984Z,2.40
2023-03-17T02:32:20.718Z,2.40
2023-03-17T02:34:49.550Z,2.50
2023-03-17T02:37:18.252Z,2.60
2023-03-17T02:39:46.579Z,2.40
2023-03-17T02:42:14.642Z,2.40
2023-03-17T02:44:41.818Z,2.40
2023-03-17T02:47:08.998Z,2.30
2023-03-17T02:49:38.839Z,2.40
2023-03-17T02:52:07.405Z,2.30
2023-03-17T02:54:35.000Z,2.30
2023-03-17T02:57:02.112Z,2.30
2023-03-17T02:59:29.233Z,2.40
2023-03-17T03:01:56.866Z,2.40
2023-03-17T03:04:24.511Z,2.40
2023-03-17T03:06:52.383Z,2.30
2023-03-17T03:09:21.022Z,2.30
2023-03-17T03:11:48.406Z,2.30
2023-03-17T03:14:16.107Z,2.30
2023-03-17T03:16:43.654Z,2.30
2023-03-17T03:19:10.776Z,2.40
2023-03-17T03:21:37.913Z,2.40
2023-03-17T03:24:06.632Z,2.40
2023-03-17T03:26:33.795Z,2.40
2023-03-17T03:29:01.436Z,2.40
2023-03-17T03:31:28.597Z,2.40
2023-03-17T03:33:55.750Z,2.40
2023-03-17T03:36:23.419Z,2.40
2023-03-17T03:38:50.553Z,2.40
2023-03-17T03:41:17.723Z,2.30
2023-03-17T03:43:45.263Z,2.30
2023-03-17T03:46:12.352Z,2.20
2023-03-17T03:48:39.460Z,2.20
2023-03-17T03:51:06.895Z,2.20
2023-03-17T03:53:34.080Z,2.30
2023-03-17T03:56:01.925Z,2.20
2023-03-17T03:58:29.268Z,2.20
2023-03-17T04:00:57.017Z,2.20
2023-03-17T04:03:24.196Z,2.10
2023-03-17T04:05:51.302Z,2.10
2023-03-17T04:08:18.416Z,2.00
2023-03-17T04:10:45.625Z,2.00
2023-03-17T04:13:14.069Z,2.00
2023-03-17T04:15:41.600Z,2.00
2023-03-17T04:18:09.762Z,2.00
2023-03-17T04:20:36.963Z,2.00
2023-03-17T04:23:04.252Z,2.00
2023-03-17T04:25:31.600Z,2.00
2023-03-17T04:27:58.656Z,2.00
2023-03-17T04:30:26.468Z,2.20
2023-03-17T04:32:53.957Z,2.20
2023-03-17T04:35:25.143Z,2.10
2023-03-17T04:37:52.214Z,2.10
2023-03-17T04:40:20.273Z,2.20
2023-03-17T04:42:47.451Z,2.00
2023-03-17T04:45:15.666Z,2.00
2023-03-17T04:47:43.399Z,2.00
2023-03-17T04:50:11.307Z,2.00
2023-03-17T04:52:38.862Z,2.00
2023-03-17T04:55:08.378Z,2.00
2023-03-17T04:57:36.945Z,2.00
2023-03-17T05:00:09.654Z,2.00
2023-03-17T05:02:39.058Z,1.90
2023-03-17T05:05:06.365Z,1.90
2023-03-17T05:07:34.209Z,1.80
2023-03-17T05:10:02.232Z,1.70
2023-03-17T05:12:29.373Z,1.80
2023-03-17T05:14:56.642Z,1.80
2023-03-17T05:17:23.767Z,1.90
2023-03-17T05:19:51.076Z,1.80
2023-03-17T05:22:18.151Z,1.80
2023-03-17T05:24:45.438Z,1.80
2023-03-17T05:27:12.546Z,1.80
2023-03-17T05:29:39.773Z,1.90
2023-03-17T05:32:07.632Z,1.80
2023-03-17T05:34:34.720Z,1.80
2023-03-17T05:37:01.861Z,1.70
2023-03-17T05:39:28.960Z,1.70
2023-03-17T05:41:57.171Z,1.70
2023-03-17T05:44:24.855Z,1.70
2023-03-17T05:46:51.911Z,1.70
2023-03-17T05:49:20.419Z,1.70
2023-03-17T05:51:47.630Z,1.70
2023-03-17T05:54:14.694Z,1.70
2023-03-17T05:56:42.821Z,1.80
2023-03-17T05:59:10.724Z,1.70
2023-03-17T06:01:37.850Z,1.80
2023-03-17T06:04:05.034Z,1.70
2023-03-17T06:06:32.409Z,1.70
2023-03-17T06:08:59.829Z,1.70
2023-03-17T06:11:27.295Z,1.70
2023-03-17T06:13:54.690Z,1.70
2023-03-17T06:16:22.387Z,1.70
2023-03-17T06:18:49.804Z,1.70
2023-03-17T06:21:17.049Z,1.70
2023-03-17T06:23:44.125Z,1.60
2023-03-17T06:26:11.266Z,1.60
2023-03-17T06:28:38.400Z,1.60
2023-03-17T06:31:07.314Z,1.60
2023-03-17T06:33:35.496Z,1.60
2023-03-17T06:36:03.416Z,1.60
2023-03-17T06:38:30.595Z,1.70
2023-03-17T06:40:58.134Z,1.70
2023-03-17T06:43:25.362Z,1.80
2023-03-17T06:45:52.806Z,1.80
2023-03-17T06:48:20.024Z,1.80
2023-03-17T06:50:50.298Z,1.90
2023-03-17T06:53:17.459Z,1.90
2023-03-17T06:55:45.144Z,1.90
2023-03-17T06:58:13.236Z,2.00
2023-03-17T07:00:40.404Z,2.00
2023-03-17T07:03:07.693Z,2.00
2023-03-17T07:05:34.823Z,2.10
2023-03-17T07:08:01.911Z,2.10
2023-03-17T07:10:29.117Z,2.20
2023-03-17T07:12:56.435Z,2.30
2023-03-17T07:15:24.084Z,2.30
2023-03-17T07:17:51.891Z,2.40
2023-03-17T07:20:19.953Z,2.80
2023-03-17T07:22:47.090Z,2.50
2023-03-17T07:25:14.458Z,2.60
2023-03-17T07:27:42.199Z,2.60
2023-03-17T07:30:15.089Z,2.70
2023-03-17T07:32:42.326Z,2.80
2023-03-17T07:35:09.573Z,2.90
2023-03-17T07:37:36.853Z,3.00
2023-03-17T07:40:05.272Z,3.10
2023-03-17T07:42:32.442Z,3.10
2023-03-17T07:44:59.513Z,3.10
2023-03-17T07:47:27.258Z,3.20
2023-03-17T07:49:54.884Z,3.30
2023-03-17T07:52:21.960Z,3.30
2023-03-17T07:54:49.084Z,3.70
2023-03-17T07:57:16.879Z,3.50
2023-03-17T07:59:44.520Z,3.50
2023-03-17T08:02:16.440Z,3.70
2023-03-17T08:04:45.016Z,3.70
2023-03-17T08:07:13.009Z,3.70
2023-03-17T08:09:40.169Z,3.80
2023-03-17T08:12:09.414Z,3.80
2023-03-17T08:14:36.611Z,3.90
2023-03-17T08:17:04.915Z,4.00
2023-03-17T08:19:32.316Z,4.10
2023-03-17T08:21:59.506Z,4.20
2023-03-17T08:24:27.131Z,4.20
2023-03-17T08:26:54.446Z,4.30
2023-03-17T08:29:21.557Z,4.40
2023-03-17T08:31:48.709Z,4.50
2023-03-17T08:34:16.606Z,4.50
2023-03-17T08:36:44.688Z,4.50
2023-03-17T08:39:12.391Z,4.70
2023-03-17T08:41:39.619Z,4.60
2023-03-17T08:44:08.825Z,4.70
2023-03-17T08:46:36.287Z,4.80
2023-03-17T08:49:04.074Z,5.10
2023-03-17T08:51:36.025Z,4.90
2023-03-17T08:54:05.848Z,5.00
2023-03-17T08:56:33.723Z,5.10
2023-03-17T08:59:00.817Z,5.20
2023-03-17T09:01:28.324Z,5.20
2023-03-17T09:03:56.204Z,5.10
2023-03-17T09:06:24.460Z,5.30
2023-03-17T09:08:55.597Z,5.30
2023-03-17T09:11:32.837Z,5.40
2023-03-17T09:14:00.309Z,5.40
2023-03-17T09:16:28.767Z,5.40
2023-03-17T09:18:56.127Z,5.50
2023-03-17T09:21:23.740Z,5.70
2023-03-17T09:23:50.916Z,5.70
2023-03-17T09:26:19.379Z,5.80
2023-03-17T09:28:46.525Z,5.80
2023-03-17T09:31:13.861Z,5.90
2023-03-17T09:33:41.999Z,6.00
2023-03-17T09:36:10.906Z,6.10
2023-03-17T09:38:39.148Z,6.20
2023-03-17T09:41:33.592Z,6.30
2023-03-17T09:44:32.602Z,6.40
2023-03-17T09:47:42.709Z,6.50
2023-03-17T09:50:17.740Z,6.70
2023-03-17T09:52:46.317Z,6.80
2023-03-17T09:55:27.109Z,6.90
2023-03-17T09:57:57.115Z,6.90
2023-03-17T10:00:29.205Z,7.00
2023-03-17T10:02:58.864Z,7.00
2023-03-17T10:05:31.195Z,7.00
2023-03-17T10:08:26.915Z,7.20
2023-03-17T10:11:42.378Z,7.20
2023-03-17T10:14:49.490Z,7.50
2023-03-17T10:17:34.976Z,7.70
2023-03-17T10:20:09.205Z,7.90
2023-03-17T10:22:52.938Z,8.00
2023-03-17T10:25:33.932Z,8.10
2023-03-17T10:28:26.170Z,8.30
2023-03-17T10:30:54.507Z,8.30
2023-03-17T10:33:22.420Z,8.40
2023-03-17T10:35:49.553Z,8.50
2023-03-17T10:38:22.707Z,8.70
2023-03-17T10:41:14.091Z,8.80
2023-03-17T10:43:50.783Z,8.90
2023-03-17T10:46:25.807Z,9.10
2023-03-17T10:49:19.959Z,9.20
2023-03-17T10:51:47.318Z,9.40
2023-03-17T10:54:20.209Z,9.60
2023-03-17T10:56:57.361Z,9.70
2023-03-17T10:59:33.128Z,9.80
2023-03-17T11:02:14.547Z,10.00
2023-03-17T11:04:43.517Z,10.10
2023-03-17T11:07:27.142Z,10.20
2023-03-17T11:10:05.437Z,10.40
2023-03-17T11:12:40.602Z,10.50
2023-03-17T11:15:17.835Z,10.50
2023-03-17T11:17:54.749Z,10.70
2023-03-17T11:20:50.458Z,10.70
2023-03-17T11:23:52.903Z,10.90
2023-03-17T11:26:51.047Z,10.90
2023-03-17T11:30:13.562Z,11.00
2023-03-17T11:33:19.365Z,11.10
2023-03-17T11:36:25.751Z,11.20
2023-03-17T11:39:05.830Z,11.30
2023-03-17T11:41:56.243Z,11.30
2023-03-17T11:44:41.934Z,11.40
2023-03-17T11:47:36.398Z,11.40
2023-03-17T11:50:18.413Z,11.50
2023-03-17T11:53:04.352Z,11.50
2023-03-17T11:55:50.569Z,11.60
2023-03-17T11:58:35.626Z,11.70
2023-03-17T12:01:09.845Z,11.70
2023-03-17T12:03:49.791Z,11.70
2023-03-17T12:06:32.772Z,11.80
2023-03-17T12:09:22.242Z,11.90
2023-03-17T12:11:51.555Z,12.00
2023-03-17T12:14:42.351Z,12.10
2023-03-17T12:17:12.753Z,12.30
2023-03-17T12:20:21.547Z,12.40
2023-03-17T12:23:21.618Z,12.50
2023-03-17T12:26:14.285Z,12.70
2023-03-17T12:29:12.399Z,12.80
2023-03-17T12:31:48.920Z,12.90
2023-03-17T12:34:32.983Z,13.00
2023-03-17T12:37:00.239Z,13.10
2023-03-17T12:39:34.208Z,13.20
2023-03-17T12:42:40.026Z,13.30
2023-03-17T12:45:32.672Z,13.40
2023-03-17T12:48:40.746Z,13.50
2023-03-17T12:51:52.075Z,13.60
2023-03-17T12:54:27.144Z,13.70
2023-03-17T12:57:28.810Z,13.80
2023-03-17T13:00:19.270Z,13.90
2023-03-17T13:03:09.377Z,14.00
2023-03-17T13:05:37.497Z,14.10
2023-03-17T13:08:10.967Z,14.10
2023-03-17T13:10:50.541Z,14.20
2023-03-17T13:13:41.104Z,14.30
2023-03-17T13:16:41.186Z,14.40
2023-03-17T13:19:47.702Z,14.50
2023-03-17T13:22:34.145Z,14.50
2023-03-17T13:25:13.515Z,14.50
2023-03-17T13:27:50.015Z,14.60
2023-03-17T13:30:24.421Z,14.60
2023-03-17T13:33:09.794Z,14.70
2023-03-17T13:35:54.115Z,14.80
2023-03-17T13:38:33.044Z,14.90
2023-03-17T13:41:52.710Z,15.00
2023-03-17T13:44:41.386Z,15.10
2023-03-17T13:47:23.702Z,15.20
2023-03-17T13:49:57.175Z,15.40
2023-03-17T13:52:32.879Z,15.50
2023-03-17T13:55:32.053Z,15.60
2023-03-17T13:58:11.086Z,15.80
2023-03-17T14:00:51.569Z,15.90
2023-03-17T14:03:36.522Z,16.00
2023-03-17T14:06:08.089Z,16.10
2023-03-17T14:09:02.616Z,16.20
2023-03-17T14:11:37.839Z,16.20
2023-03-17T14:14:53.217Z,16.20
2023-03-17T14:17:31.439Z,16.20
2023-03-17T14:20:25.398Z,16.30
2023-03-17T14:23:04.254Z,16.20
2023-03-17T14:25:38.689Z,16.20
2023-03-17T14:28:12.628Z,16.10
2023-03-17T14:30:39.951Z,16.00
2023-03-17T14:33:23.081Z,16.00
2023-03-17T14:35:53.902Z,15.90
2023-03-17T14:38:29.976Z,15.80
2023-03-17T14:41:07.028Z,15.90
2023-03-17T14:43:36.568Z,15.80
2023-03-17T14:46:17.433Z,15.80
2023-03-17T14:48:49.751Z,15.70
2023-03-17T14:51:38.151Z,15.70
2023-03-17T14:54:32.895Z,15.60
2023-03-17T14:57:23.783Z,15.50
2023-03-17T15:00:14.987Z,15.40
2023-03-17T15:02:44.291Z,15.30
2023-03-17T15:05:29.261Z,15.30
2023-03-17T15:07:57.239Z,15.20
2023-03-17T15:10:34.394Z,15.20
2023-03-17T15:13:06.360Z,15.10
2023-03-17T15:15:38.274Z,15.10
2023-03-17T15:18:14.437Z,15.10
2023-03-17T15:20:45.900Z,15.10
2023-03-17T15:23:25.078Z,15.10
2023-03-17T15:25:57.555Z,15.00
2023-03-17T15:28:32.191Z,15.00
2023-03-17T15:31:13.799Z,15.00
2023-03-17T15:33:42.194Z,15.00
2023-03-17T15:36:31.191Z,15.00
2023-03-17T15:39:00.658Z,15.00
2023-03-17T15:41:28.131Z,14.90
2023-03-17T15:43:55.429Z,14.90
2023-03-17T15:46:33.640Z,18.90
2023-03-17T15:49:01.221Z,14.80
2023-03-17T15:51:28.369Z,14.80
2023-03-17T15:53:55.699Z,14.90
2023-03-17T15:56:22.947Z,14.70
2023-03-17T15:58:52.483Z,14.70
2023-03-17T16:01:20.888Z,14.60
2023-03-17T16:03:49.069Z,14.60
2023-03-17T16:06:22.193Z,10.10
2023-03-17T16:08:50.736Z,14.60
2023-03-17T16:11:28.462Z,14.60
2023-03-17T16:14:00.147Z,14.60
2023-03-17T16:16:39.677Z,14.50
2023-03-17T16:19:17.043Z,14.50
2023-03-17T16:21:44.336Z,14.40
2023-03-17T16:24:23.159Z,14.40
2023-03-17T16:26:50.924Z,14.40
2023-03-17T16:29:20.499Z,14.60
2023-03-17T16:31:50.586Z,14.50
2023-03-17T16:34:23.760Z,14.20
2023-03-17T16:36:51.406Z,14.10
2023-03-17T16:39:23.020Z,14.00
2023-03-17T16:41:52.142Z,14.10
2023-03-17T16:44:21.662Z,14.10
2023-03-17T16:46:49.171Z,14.00
2023-03-17T16:49:19.563Z,14.00
2023-03-17T16:51:48.709Z,14.00
2023-03-17T16:54:16.503Z,13.90
2023-03-17T16:56:43.761Z,13.90
2023-03-17T16:59:21.269Z,13.80
2023-03-17T17:01:48.468Z,13.80
2023-03-17T17:04:15.620Z,13.70
2023-03-17T17:06:42.714Z,13.70
2023-03-17T17:09:09.828Z,13.60
2023-03-17T17:11:36.916Z,13.60
2023-03-17T17:14:04.090Z,13.50
2023-03-17T17:16:39.820Z,13.50
2023-03-17T17:19:17.144Z,17.00
2023-03-17T17:21:45.387Z,13.30
2023-03-17T17:24:14.157Z,13.30
2023-03-17T17:26:41.669Z,13.00
2023-03-17T17:29:08.964Z,13.20
2023-03-17T17:31:36.137Z,13.10
2023-03-17T17:34:03.398Z,13.10
2023-03-17T17:36:31.123Z,13.00
2023-03-17T17:38:58.276Z,8.80
2023-03-17T17:41:25.412Z,12.90
2023-03-17T17:43:53.757Z,12.80
2023-03-17T17:46:23.153Z,13.20
2023-03-17T17:48:50.635Z,12.70
2023-03-17T17:51:17.820Z,12.50
2023-03-17T17:53:45.217Z,12.50
2023-03-17T17:56:17.782Z,12.40
2023-03-17T17:58:45.721Z,12.30
2023-03-17T18:01:14.281Z,12.30
2023-03-17T18:03:42.904Z,12.30
2023-03-17T18:06:10.717Z,12.70
2023-03-17T18:08:37.810Z,12.20
2023-03-17T18:11:05.682Z,12.10
2023-03-17T18:13:34.460Z,12.10
2023-03-17T18:16:01.983Z,12.00
2023-03-17T18:18:29.278Z,12.00
2023-03-17T18:20:56.420Z,11.60
2023-03-17T18:23:23.594Z,11.90
2023-03-17T18:25:50.734Z,11.90
2023-03-17T18:28:18.037Z,11.90
2023-03-17T18:30:45.443Z,11.80
2023-03-17T18:33:19.989Z,11.80
2023-03-17T18:35:51.078Z,11.70
2023-03-17T18:38:18.510Z,11.70
2023-03-17T18:40:45.968Z,11.60
2023-03-17T18:43:13.129Z,11.60
2023-03-17T18:45:40.492Z,11.60
2023-03-17T18:48:07.721Z,11.50
2023-03-17T18:50:34.891Z,11.50
2023-03-17T18:53:02.431Z,11.40
2023-03-17T18:55:29.625Z,11.40
2023-03-17T18:57:56.799Z,11.30
2023-03-17T19:00:26.031Z,11.30
2023-03-17T19:02:53.720Z,11.20
2023-03-17T19:05:21.119Z,11.20
2023-03-17T19:07:48.989Z,11.10
2023-03-17T19:10:16.717Z,11.10
2023-03-17T19:12:46.259Z,11.10
2023-03-17T19:15:14.686Z,11.00
2023-03-17T19:17:42.389Z,11.00
2023-03-17T19:20:10.871Z,10.90
2023-03-17T19:22:38.248Z,10.90
2023-03-17T19:25:06.301Z,10.90
2023-03-17T19:27:33.389Z,10.80
2023-03-17T19:30:00.674Z,10.80
2023-03-17T19:32:27.893Z,10.80
2023-03-17T19:34:54.997Z,10.70
2023-03-17T19:37:22.649Z,10.70
2023-03-17T19:39:49.751Z,10.60
2023-03-17T19:42:17.512Z,10.60
2023-03-17T19:44:44.848Z,10.60
2023-03-17T19:47:12.008Z,10.50
2023-03-17T19:49:39.086Z,10.50
2023-03-17T19:52:07.753Z,10.50
2023-03-17T19:54:37.914Z,10.40
2023-03-17T19:57:05.917Z,10.40
2023-03-17T19:59:33.000Z,10.30
2023-03-17T20:02:00.231Z,10.30
2023-03-17T20:04:27.363Z,10.20
2023-03-17T20:06:55.808Z,10.20
2023-03-17T20:09:27.269Z,10.20
2023-03-17T20:11:56.209Z,10.10
2023-03-17T20:14:24.260Z,10.10
2023-03-17T20:16:51.994Z,10.10
2023-03-17T20:19:19.209Z,10.00
2023-03-17T20:21:46.621Z,10.00
2023-03-17T20:24:14.849Z,10.00
2023-03-17T20:26:44.708Z,10.00
2023-03-17T20:29:16.206Z,9.90
2023-03-17T20:31:43.928Z,9.90
2023-03-17T20:34:11.841Z,9.90
2023-03-17T20:36:42.435Z,9.80
2023-03-17T20:39:14.908Z,9.80
2023-03-17T20:41:42.319Z,9.80
2023-03-17T20:44:09.473Z,9.80
2023-03-17T20:46:36.820Z,9.70
2023-03-17T20:49:05.684Z,9.70
2023-03-17T20:51:33.951Z,9.60
2023-03-17T20:54:01.767Z,9.60
2023-03-17T20:56:30.757Z,9.60
2023-03-17T20:58:58.696Z,9.60
2023-03-17T21:01:26.725Z,9.50
2023-03-17T21:03:54.043Z,9.50
2023-03-17T21:06:21.277Z,9.50
2023-03-17T21:08:49.035Z,9.40
2023-03-17T21:11:20.322Z,9.40
2023-03-17T21:13:47.687Z,9.40
2023-03-17T21:16:26.676Z,9.40
2023-03-17T21:18:54.434Z,9.30
2023-03-17T21:21:22.546Z,9.30
2023-03-17T21:23:50.233Z,9.30
2023-03-17T21:26:18.466Z,9.30
2023-03-17T21:28:46.539Z,9.20
2023-03-17T21:31:15.962Z,9.20
2023-03-17T21:33:43.964Z,9.10
2023-03-17T21:36:11.271Z,9.10
2023-03-17T21:38:38.946Z,9.00
2023-03-17T21:41:30.442Z,9.00
2023-03-17T21:43:58.078Z,8.90
2023-03-17T21:46:25.883Z,8.90
2023-03-17T21:48:57.048Z,8.80
2023-03-17T21:51:25.049Z,8.80
2023-03-17T21:53:53.050Z,8.80
2023-03-17T21:56:20.884Z,8.70
2023-03-17T21:58:49.084Z,8.70
2023-03-17T22:01:18.335Z,8.70
2023-03-17T22:03:45.621Z,8.60
2023-03-17T22:06:14.132Z,8.60
2023-03-17T22:08:41.671Z,8.60
2023-03-17T22:11:12.171Z,8.50
2023-03-17T22:13:40.699Z,8.50
2023-03-17T22:16:10.047Z,8.40
2023-03-17T22:18:37.637Z,8.40
2023-03-17T22:21:06.795Z,8.30
2023-03-17T22:23:39.648Z,8.30
2023-03-17T22:26:09.941Z,8.30
2023-03-17T22:28:37.903Z,8.30
2023-03-17T22:31:12.095Z,8.20
2023-03-17T22:33:39.983Z,8.20
2023-03-17T22:36:07.500Z,8.20
2023-03-17T22:38:34.812Z,8.10
2023-03-17T22:41:09.618Z,8.10
2023-03-17T22:43:37.881Z,8.10
2023-03-17T22:46:05.834Z,8.00
2023-03-17T22:48:35.943Z,7.90
2023-03-17T22:51:14.397Z,7.90
2023-03-17T22:53:41.583Z,7.90
2023-03-17T22:56:11.067Z,7.90
2023-03-17T22:58:39.049Z,8.60
2023-03-17T23:01:07.936Z,7.90
2023-03-17T23:03:36.276Z,7.90
2023-03-17T23:06:06.301Z,7.90
2023-03-17T23:08:36.708Z,7.90
2023-03-17T23:11:10.574Z,7.90
2023-03-17T23:13:39.834Z,7.90
2023-03-17T23:16:08.771Z,7.90
2023-03-17T23:18:35.901Z,7.90
2023-03-17T23:21:05.304Z,7.80
2023-03-17T23:23:34.122Z,7.80
2023-03-17T23:26:01.213Z,7.70
2023-03-17T23:28:28.449Z,7.70
2023-03-17T23:30:55.691Z,7.70
2023-03-17T23:33:24.133Z,7.70
2023-03-17T23:35:52.475Z,7.70
2023-03-17T23:38:21.364Z,7.70
2023-03-17T23:40:50.151Z,7.60
2023-03-17T23:43:17.772Z,7.60
2023-03-17T23:45:45.485Z,7.60
2023-03-17T23:48:12.803Z,7.60
2023-03-17T23:50:41.363Z,7.60
2023-03-17T23:53:09.622Z,7.50
2023-03-17T23:55:36.891Z,7.50
2023-03-17T23:58:04.999Z,7.50
